createdAt,value
2023-02-24T00:00:47.409Z,21.68
2023-02-24T00:02:48.764Z,21.72
2023-02-24T00:04:53.144Z,21.73
2023-02-24T00:06:54.442Z,21.75
2023-02-24T00:08:56.171Z,21.75
2023-02-24T00:10:57.645Z,21.77
2023-02-24T00:12:59.258Z,21.75
2023-02-24T00:15:00.581Z,21.76
2023-02-24T00:17:02.385Z,21.77
2023-02-24T00:19:03.920Z,21.75
2023-02-24T00:21:05.642Z,21.75
2023-02-24T00:23:09.816Z,21.73
2023-02-24T00:25:12.203Z,21.75
2023-02-24T00:27:13.516Z,21.77
2023-02-24T00:29:14.819Z,21.75
2023-02-24T00:31:16.331Z,21.74
2023-02-24T00:33:22.510Z,21.73
2023-02-24T00:35:23.982Z,21.72
2023-02-24T00:37:25.289Z,21.70
2023-02-24T00:39:30.391Z,21.68
2023-02-24T00:41:31.789Z,21.67
2023-02-24T00:43:37.128Z,21.66
2023-02-24T00:45:41.151Z,21.65
2023-02-24T00:47:42.474Z,21.64
2023-02-24T00:49:43.877Z,21.63
2023-02-24T00:51:45.500Z,21.62
2023-02-24T00:53:46.844Z,21.61
2023-02-24T00:55:48.143Z,21.60
2023-02-24T00:57:52.202Z,21.60
2023-02-24T00:59:53.490Z,21.60
2023-02-24T01:01:55.021Z,21.60
2023-02-24T01:03:56.441Z,21.61
2023-02-24T01:05:57.757Z,21.61
2023-02-24T01:07:59.776Z,21.60
2023-02-24T01:10:01.519Z,21.61
2023-02-24T01:12:38.099Z,21.59
2023-02-24T01:14:42.587Z,21.59
2023-02-24T01:17:02.195Z,21.58
2023-02-24T01:19:03.523Z,21.57
2023-02-24T01:21:04.821Z,21.55
2023-02-24T01:23:06.120Z,21.55
2023-02-24T01:25:09.172Z,21.57
2023-02-24T01:27:10.524Z,21.57
2023-02-24T01:29:11.827Z,21.62
2023-02-24T01:31:13.244Z,21.64
2023-02-24T01:33:14.756Z,21.67
2023-02-24T01:35:16.157Z,21.66
2023-02-24T01:37:19.210Z,21.68
2023-02-24T01:39:21.153Z,21.68
2023-02-24T01:41:22.686Z,21.67
2023-02-24T01:43:24.016Z,21.70
2023-02-24T01:45:25.364Z,21.72
2023-02-24T01:47:30.457Z,21.73
2023-02-24T01:49:34.079Z,21.70
2023-02-24T01:51:35.426Z,21.70
2023-02-24T01:53:36.730Z,21.68
2023-02-24T01:55:38.060Z,21.66
2023-02-24T01:57:39.413Z,21.66
2023-02-24T01:59:40.714Z,21.66
2023-02-24T02:01:42.994Z,21.63
2023-02-24T02:03:44.351Z,21.62
2023-02-24T02:05:48.686Z,21.62
2023-02-24T02:07:50.683Z,21.60
2023-02-24T02:09:54.658Z,21.60
2023-02-24T02:11:55.988Z,21.58
2023-02-24T02:13:57.375Z,21.58
2023-02-24T02:15:58.865Z,21.57
2023-02-24T02:18:00.175Z,21.58
2023-02-24T02:20:01.503Z,21.60
2023-02-24T02:22:02.894Z,21.62
2023-02-24T02:24:04.510Z,21.65
2023-02-24T02:26:05.906Z,21.68
2023-02-24T02:28:07.232Z,21.70
2023-02-24T02:30:13.819Z,21.71
2023-02-24T02:32:15.230Z,21.70
2023-02-24T02:34:17.015Z,21.71
2023-02-24T02:36:18.305Z,21.70
2023-02-24T02:38:25.919Z,21.69
2023-02-24T02:40:27.254Z,21.70
2023-02-24T02:42:28.587Z,21.71
2023-02-24T02:44:32.321Z,21.69
2023-02-24T02:46:36.504Z,21.73
2023-02-24T02:48:37.840Z,21.63
2023-02-24T02:50:39.169Z,21.53
2023-02-24T02:52:40.501Z,21.53
2023-02-24T02:54:45.497Z,21.55
2023-02-24T02:56:47.235Z,21.58
2023-02-24T02:58:48.536Z,21.60
2023-02-24T03:01:02.200Z,21.62
2023-02-24T03:03:03.543Z,21.62
2023-02-24T03:05:05.237Z,21.62
2023-02-24T03:07:06.592Z,21.60
2023-02-24T03:09:12.372Z,21.58
2023-02-24T03:11:14.119Z,21.59
2023-02-24T03:13:16.446Z,21.63
2023-02-24T03:15:17.735Z,21.63
2023-02-24T03:17:21.645Z,21.63
2023-02-24T03:19:22.954Z,21.61
2023-02-24T03:21:24.268Z,21.63
2023-02-24T03:23:26.988Z,21.62
2023-02-24T03:25:30.803Z,21.60
2023-02-24T03:27:32.496Z,21.60
2023-02-24T03:29:33.811Z,21.57
2023-02-24T03:31:35.132Z,21.59
2023-02-24T03:33:36.911Z,21.63
2023-02-24T03:35:38.239Z,21.62
2023-02-24T03:37:39.695Z,21.63
2023-02-24T03:39:41.051Z,21.63
2023-02-24T03:41:42.386Z,21.79
2023-02-24T03:43:45.003Z,21.74
2023-02-24T03:45:46.849Z,21.60
2023-02-24T03:47:48.221Z,21.47
2023-02-24T03:49:50.273Z,21.37
2023-02-24T03:51:56.975Z,21.44
2023-02-24T03:53:58.280Z,21.32
2023-02-24T03:56:00.535Z,21.37
2023-02-24T03:58:02.402Z,21.17
2023-02-24T04:00:16.726Z,21.07
2023-02-24T04:02:18.059Z,21.13
2023-02-24T04:04:19.545Z,21.16
2023-02-24T04:06:20.887Z,21.15
2023-02-24T04:08:23.423Z,21.14
2023-02-24T04:10:24.737Z,21.14
2023-02-24T04:12:26.911Z,21.14
2023-02-24T04:14:28.235Z,21.17
2023-02-24T04:16:29.598Z,21.20
2023-02-24T04:18:31.231Z,21.27
2023-02-24T04:20:32.733Z,21.33
2023-02-24T04:22:36.193Z,21.38
2023-02-24T04:24:37.557Z,20.56
2023-02-24T04:26:40.496Z,21.46
2023-02-24T04:28:42.208Z,21.49
2023-02-24T04:30:43.688Z,21.52
2023-02-24T04:32:45.186Z,21.57
2023-02-24T04:34:46.942Z,21.57
2023-02-24T04:36:49.765Z,21.55
2023-02-24T04:38:52.118Z,21.58
2023-02-24T04:40:53.532Z,21.53
2023-02-24T04:42:54.928Z,21.52
2023-02-24T04:44:58.581Z,21.48
2023-02-24T04:47:00.731Z,21.46
2023-02-24T04:49:02.457Z,21.41
2023-02-24T04:51:06.680Z,21.40
2023-02-24T04:53:09.393Z,21.38
2023-02-24T04:55:10.912Z,20.49
2023-02-24T04:57:12.884Z,21.32
2023-02-24T04:59:14.207Z,21.29
2023-02-24T05:01:15.555Z,21.27
2023-02-24T05:03:18.400Z,21.25
2023-02-24T05:05:25.711Z,21.20
2023-02-24T05:07:29.104Z,21.14
2023-02-24T05:09:30.424Z,21.08
2023-02-24T05:11:34.907Z,21.03
2023-02-24T05:13:37.683Z,20.99
2023-02-24T05:15:39.103Z,20.96
2023-02-24T05:17:41.124Z,20.91
2023-02-24T05:20:02.252Z,20.89
2023-02-24T05:22:04.475Z,20.88
2023-02-24T05:24:11.252Z,20.88
2023-02-24T05:26:12.555Z,20.89
2023-02-24T05:28:13.871Z,20.90
2023-02-24T05:30:15.311Z,20.92
2023-02-24T05:32:16.807Z,20.93
2023-02-24T05:34:18.278Z,20.96
2023-02-24T05:36:19.847Z,20.97
2023-02-24T05:38:21.162Z,21.01
2023-02-24T05:40:24.744Z,21.06
2023-02-24T05:42:26.135Z,21.11
2023-02-24T05:44:27.470Z,21.16
2023-02-24T05:46:28.794Z,21.22
2023-02-24T05:48:35.075Z,21.29
2023-02-24T05:50:36.642Z,21.34
2023-02-24T05:52:37.980Z,21.41
2023-02-24T05:54:39.343Z,21.43
2023-02-24T05:56:42.336Z,21.45
2023-02-24T05:58:45.208Z,21.47
2023-02-24T06:00:46.572Z,21.48
2023-02-24T06:02:50.982Z,21.49
2023-02-24T06:04:54.036Z,21.49
2023-02-24T06:06:55.511Z,21.49
2023-02-24T06:08:57.885Z,21.46
2023-02-24T06:10:59.403Z,21.43
2023-02-24T06:13:00.987Z,21.40
2023-02-24T06:15:07.394Z,21.36
2023-02-24T06:17:08.993Z,21.34
2023-02-24T06:19:10.410Z,21.33
2023-02-24T06:21:12.688Z,21.29
2023-02-24T06:23:16.892Z,21.27
2023-02-24T06:25:18.560Z,21.22
2023-02-24T06:27:21.455Z,21.19
2023-02-24T06:29:25.004Z,21.18
2023-02-24T06:31:27.412Z,21.16
2023-02-24T06:33:28.802Z,21.15
2023-02-24T06:35:30.113Z,21.15
2023-02-24T06:37:31.410Z,21.12
2023-02-24T06:39:33.478Z,21.12
2023-02-24T06:41:37.964Z,21.10
2023-02-24T06:43:39.436Z,21.09
2023-02-24T06:45:41.072Z,21.08
2023-02-24T06:47:42.965Z,21.07
2023-02-24T06:49:44.301Z,21.06
2023-02-24T06:51:45.592Z,21.04
2023-02-24T06:53:46.888Z,21.04
2023-02-24T06:55:48.982Z,21.04
2023-02-24T06:57:50.310Z,21.04
2023-02-24T06:59:52.349Z,21.04
2023-02-24T07:01:53.969Z,21.05
2023-02-24T07:04:07.805Z,21.06
2023-02-24T07:06:23.924Z,21.09
2023-02-24T07:08:27.240Z,21.13
2023-02-24T07:10:29.565Z,21.16
2023-02-24T07:12:31.010Z,21.20
2023-02-24T07:14:32.524Z,21.26
2023-02-24T07:16:34.742Z,21.31
2023-02-24T07:18:36.932Z,21.35
2023-02-24T07:20:43.678Z,21.39
2023-02-24T07:22:46.105Z,21.42
2023-02-24T07:24:47.404Z,21.45
2023-02-24T07:26:51.861Z,21.44
2023-02-24T07:28:54.980Z,21.42
2023-02-24T07:30:57.292Z,21.43
2023-02-24T07:32:58.703Z,21.41
2023-02-24T07:35:00.020Z,21.40
2023-02-24T07:37:06.644Z,21.37
2023-02-24T07:39:08.145Z,21.36
2023-02-24T07:41:12.416Z,21.33
2023-02-24T07:43:15.992Z,21.29
2023-02-24T07:45:17.404Z,21.27
2023-02-24T07:47:18.927Z,21.25
2023-02-24T07:49:20.308Z,21.22
2023-02-24T07:51:21.862Z,21.19
2023-02-24T07:53:23.348Z,21.17
2023-02-24T07:55:31.293Z,21.14
2023-02-24T07:57:33.442Z,21.12
2023-02-24T07:59:35.208Z,21.11
2023-02-24T08:01:39.014Z,21.11
2023-02-24T08:03:41.476Z,21.10
2023-02-24T08:05:43.692Z,21.09
2023-02-24T08:07:49.821Z,21.08
2023-02-24T08:10:09.731Z,21.08
2023-02-24T08:12:11.087Z,21.07
2023-02-24T08:14:13.780Z,21.05
2023-02-24T08:16:15.157Z,21.05
2023-02-24T08:18:29.641Z,21.05
2023-02-24T08:20:36.284Z,21.04
2023-02-24T08:22:37.774Z,21.04
2023-02-24T08:24:39.159Z,21.05
2023-02-24T08:26:44.770Z,21.08
2023-02-24T08:28:46.133Z,21.11
2023-02-24T08:30:47.772Z,21.14
2023-02-24T08:32:56.654Z,21.16
2023-02-24T08:35:02.964Z,21.21
2023-02-24T08:37:04.336Z,21.28
2023-02-24T08:39:06.057Z,21.36
2023-02-24T08:41:07.392Z,21.41
2023-02-24T08:43:19.500Z,21.47
2023-02-24T08:45:20.864Z,21.51
2023-02-24T08:47:30.927Z,21.53
2023-02-24T08:49:33.307Z,21.57
2023-02-24T08:51:35.474Z,21.53
2023-02-24T08:53:40.367Z,21.51
2023-02-24T08:55:42.774Z,21.51
2023-02-24T08:57:53.497Z,21.48
2023-02-24T08:59:57.855Z,21.46
2023-02-24T09:02:17.836Z,21.43
2023-02-24T09:04:19.713Z,21.40
2023-02-24T09:06:28.280Z,21.37
2023-02-24T09:08:32.711Z,21.32
2023-02-24T09:10:34.233Z,21.30
2023-02-24T09:12:41.062Z,21.26
2023-02-24T09:14:42.367Z,21.22
2023-02-24T09:17:02.296Z,21.20
2023-02-24T09:19:26.520Z,21.17
2023-02-24T09:21:46.314Z,21.13
2023-02-24T09:23:47.627Z,21.11
2023-02-24T09:25:54.329Z,21.10
2023-02-24T09:27:56.253Z,21.09
2023-02-24T09:30:08.063Z,21.09
2023-02-24T09:32:13.610Z,21.06
2023-02-24T09:34:18.501Z,21.06
2023-02-24T09:36:30.167Z,21.06
2023-02-24T09:38:51.841Z,21.06
2023-02-24T09:40:53.162Z,21.05
2023-02-24T09:42:58.368Z,21.05
2023-02-24T09:44:59.706Z,21.03
2023-02-24T09:47:01.049Z,21.05
2023-02-24T09:49:05.394Z,21.06
2023-02-24T09:51:10.529Z,21.07
2023-02-24T09:53:17.262Z,21.09
2023-02-24T09:55:27.681Z,21.13
2023-02-24T09:57:37.531Z,21.17
2023-02-24T09:59:38.886Z,21.21
2023-02-24T10:01:42.977Z,21.25
2023-02-24T10:03:48.142Z,21.29
2023-02-24T10:05:49.597Z,21.32
2023-02-24T10:07:53.222Z,21.33
2023-02-24T10:09:54.563Z,21.34
2023-02-24T10:11:55.920Z,21.33
2023-02-24T10:14:03.461Z,21.32
2023-02-24T10:16:08.027Z,21.32
2023-02-24T10:18:09.339Z,21.29
2023-02-24T10:20:13.966Z,21.28
2023-02-24T10:22:27.406Z,21.31
2023-02-24T10:24:29.501Z,21.28
2023-02-24T10:26:31.962Z,21.21
2023-02-24T10:28:36.200Z,21.20
2023-02-24T10:30:43.647Z,21.19
2023-02-24T10:32:47.231Z,21.18
2023-02-24T10:34:49.368Z,21.16
2023-02-24T10:36:50.667Z,21.14
2023-02-24T10:38:55.981Z,21.10
2023-02-24T10:40:57.318Z,21.08
2023-02-24T10:43:01.760Z,21.06
2023-02-24T10:45:17.185Z,21.06
2023-02-24T10:47:19.868Z,21.06
2023-02-24T10:49:24.823Z,21.05
2023-02-24T10:51:31.931Z,21.03
2023-02-24T10:53:37.601Z,21.03
2023-02-24T10:55:44.873Z,21.00
2023-02-24T10:57:59.137Z,20.98
2023-02-24T11:00:19.654Z,20.96
2023-02-24T11:02:32.683Z,20.95
2023-02-24T11:04:43.886Z,21.00
2023-02-24T11:06:55.724Z,20.98
2023-02-24T11:09:08.932Z,20.99
2023-02-24T11:11:19.863Z,21.00
2023-02-24T11:13:40.349Z,21.12
2023-02-24T11:16:00.343Z,21.13
2023-02-24T11:18:02.337Z,21.13
2023-02-24T11:20:10.843Z,21.16
2023-02-24T11:22:12.220Z,21.14
2023-02-24T11:24:13.512Z,21.16
2023-02-24T11:26:16.940Z,21.24
2023-02-24T11:28:18.572Z,21.24
2023-02-24T11:30:19.938Z,21.22
2023-02-24T11:32:22.124Z,21.24
2023-02-24T11:34:24.861Z,21.24
2023-02-24T11:36:26.161Z,21.26
2023-02-24T11:38:28.015Z,21.27
2023-02-24T11:40:32.588Z,21.29
2023-02-24T11:42:33.921Z,21.31
2023-02-24T11:44:35.215Z,21.34
2023-02-24T11:46:36.612Z,21.33
2023-02-24T11:48:37.961Z,21.33
2023-02-24T11:50:39.866Z,21.33
2023-02-24T11:52:41.230Z,21.34
2023-02-24T11:54:42.557Z,21.33
2023-02-24T11:56:44.158Z,21.34
2023-02-24T11:58:45.475Z,21.31
2023-02-24T12:00:48.022Z,21.30
2023-02-24T12:02:50.141Z,21.29
2023-02-24T12:04:51.516Z,21.26
2023-02-24T12:06:52.881Z,21.23
2023-02-24T12:08:54.235Z,21.20
2023-02-24T12:10:55.837Z,20.93
2023-02-24T12:12:57.184Z,21.19
2023-02-24T12:14:58.498Z,21.19
2023-02-24T12:16:59.792Z,21.17
2023-02-24T12:19:01.195Z,21.15
2023-02-24T12:21:02.495Z,21.12
2023-02-24T12:23:03.799Z,21.11
2023-02-24T12:25:05.164Z,21.17
2023-02-24T12:27:08.003Z,21.16
2023-02-24T12:29:10.691Z,21.11
2023-02-24T12:31:12.394Z,21.12
2023-02-24T12:33:13.895Z,21.13
2023-02-24T12:35:19.841Z,21.10
2023-02-24T12:37:21.192Z,21.07
2023-02-24T12:39:22.603Z,21.07
2023-02-24T12:41:24.031Z,21.07
2023-02-24T12:43:25.520Z,21.04
2023-02-24T12:45:26.854Z,21.02
2023-02-24T12:47:28.166Z,20.58
2023-02-24T12:49:29.492Z,20.93
2023-02-24T12:51:30.803Z,20.87
2023-02-24T12:53:32.101Z,20.80
2023-02-24T12:55:33.444Z,20.76
2023-02-24T12:57:37.043Z,20.72
2023-02-24T12:59:38.594Z,20.70
2023-02-24T13:01:39.902Z,20.71
2023-02-24T13:03:41.247Z,20.75
2023-02-24T13:05:42.674Z,20.78
2023-02-24T13:07:43.984Z,20.85
2023-02-24T13:09:45.340Z,20.93
2023-02-24T13:11:47.527Z,20.99
2023-02-24T13:13:50.471Z,21.03
2023-02-24T13:15:51.815Z,21.08
2023-02-24T13:17:53.215Z,21.12
2023-02-24T13:19:54.711Z,21.16
2023-02-24T13:21:56.015Z,21.17
2023-02-24T13:23:58.215Z,21.20
2023-02-24T13:25:59.691Z,21.22
2023-02-24T13:28:01.110Z,21.25
2023-02-24T13:30:02.443Z,21.26
2023-02-24T13:32:03.869Z,21.25
2023-02-24T13:34:05.240Z,21.23
2023-02-24T13:36:06.656Z,20.03
2023-02-24T13:38:07.981Z,18.67
2023-02-24T13:40:11.408Z,20.31
2023-02-24T13:42:12.725Z,21.03
2023-02-24T13:44:14.022Z,21.45
2023-02-24T13:46:15.366Z,22.22
2023-02-24T13:48:16.720Z,22.54
2023-02-24T13:50:20.897Z,22.38
2023-02-24T13:52:22.248Z,22.46
2023-02-24T13:54:23.574Z,22.89
2023-02-24T13:56:24.880Z,23.07
2023-02-24T13:58:26.222Z,23.22
2023-02-24T14:00:28.101Z,23.36
2023-02-24T14:02:29.514Z,23.65
2023-02-24T14:04:30.903Z,23.76
2023-02-24T14:06:32.210Z,23.52
2023-02-24T14:08:33.550Z,22.63
2023-02-24T14:10:36.912Z,22.16
2023-02-24T14:12:38.298Z,21.93
2023-02-24T14:14:39.600Z,21.79
2023-02-24T14:16:40.975Z,21.72
2023-02-24T14:18:42.270Z,21.66
2023-02-24T14:20:43.641Z,21.63
2023-02-24T14:22:45.048Z,21.61
2023-02-24T14:24:46.361Z,21.54
2023-02-24T14:26:47.720Z,21.51
2023-02-24T14:28:49.034Z,21.50
2023-02-24T14:30:50.533Z,21.94
2023-02-24T14:32:52.002Z,22.42
2023-02-24T14:34:53.435Z,21.87
2023-02-24T14:36:54.750Z,21.73
2023-02-24T14:38:56.047Z,21.74
2023-02-24T14:40:57.396Z,21.76
2023-02-24T14:42:58.892Z,21.77
2023-02-24T14:45:00.239Z,21.77
2023-02-24T14:47:01.589Z,21.79
2023-02-24T14:49:02.915Z,21.80
2023-02-24T14:51:04.278Z,21.78
2023-02-24T14:53:05.599Z,21.77
2023-02-24T14:55:06.983Z,21.77
2023-02-24T14:57:08.297Z,21.76
2023-02-24T14:59:09.599Z,21.76
2023-02-24T15:01:10.916Z,21.77
2023-02-24T15:03:12.241Z,21.76
2023-02-24T15:05:13.609Z,21.78
2023-02-24T15:07:17.398Z,21.79
2023-02-24T15:09:21.799Z,21.79
2023-02-24T15:11:23.144Z,21.85
2023-02-24T15:13:24.743Z,21.91
2023-02-24T15:15:27.213Z,21.92
2023-02-24T15:17:28.568Z,21.93
2023-02-24T15:19:29.858Z,21.93
2023-02-24T15:21:31.351Z,21.95
2023-02-24T15:23:32.742Z,21.95
2023-02-24T15:25:42.710Z,21.99
2023-02-24T15:27:47.344Z,21.89
2023-02-24T15:29:48.721Z,21.82
2023-02-24T15:31:50.188Z,21.80
2023-02-24T15:33:51.558Z,21.77
2023-02-24T15:35:53.978Z,21.74
2023-02-24T15:37:58.164Z,21.69
2023-02-24T15:39:59.504Z,21.78
2023-02-24T15:42:00.800Z,21.84
2023-02-24T15:44:02.279Z,21.71
2023-02-24T15:46:04.588Z,21.64
2023-02-24T15:48:05.947Z,21.78
2023-02-24T15:50:07.239Z,21.93
2023-02-24T15:52:08.563Z,22.01
2023-02-24T15:54:09.905Z,22.08
2023-02-24T15:56:11.250Z,22.11
2023-02-24T15:58:12.549Z,22.09
2023-02-24T16:00:13.881Z,22.04
2023-02-24T16:02:17.246Z,21.89
2023-02-24T16:04:24.408Z,21.41
2023-02-24T16:06:25.780Z,21.39
2023-02-24T16:08:27.093Z,21.38
2023-02-24T16:10:28.677Z,21.37
2023-02-24T16:12:32.000Z,21.34
2023-02-24T16:14:33.373Z,21.27
2023-02-24T16:16:34.732Z,21.19
2023-02-24T16:18:36.033Z,21.17
2023-02-24T16:20:39.795Z,21.13
2023-02-24T16:22:41.220Z,21.11
2023-02-24T16:24:46.495Z,21.09
2023-02-24T16:26:47.805Z,21.11
2023-02-24T16:28:49.111Z,21.12
2023-02-24T16:30:50.566Z,21.13
2023-02-24T16:32:52.198Z,21.15
2023-02-24T16:34:53.567Z,21.18
2023-02-24T16:36:54.879Z,21.24
2023-02-24T16:38:56.327Z,21.28
2023-02-24T16:40:57.947Z,21.31
2023-02-24T16:42:59.337Z,21.35
2023-02-24T16:45:00.671Z,20.93
2023-02-24T16:47:02.269Z,21.42
2023-02-24T16:49:03.649Z,21.45
2023-02-24T16:51:05.106Z,21.47
2023-02-24T16:53:06.434Z,21.48
2023-02-24T16:55:07.724Z,21.48
2023-02-24T16:57:09.298Z,21.46
2023-02-24T16:59:10.625Z,21.45
2023-02-24T17:01:21.913Z,21.42
2023-02-24T17:03:23.302Z,21.41
2023-02-24T17:05:24.661Z,21.38
2023-02-24T17:07:26.248Z,21.38
2023-02-24T17:09:29.572Z,21.35
2023-02-24T17:11:33.685Z,21.32
2023-02-24T17:13:34.979Z,21.29
2023-02-24T17:15:36.335Z,21.28
2023-02-24T17:17:40.927Z,21.23
2023-02-24T17:19:42.246Z,21.20
2023-02-24T17:21:43.610Z,21.20
2023-02-24T17:23:44.916Z,21.19
2023-02-24T17:25:46.209Z,21.19
2023-02-24T17:27:47.532Z,21.18
2023-02-24T17:29:48.860Z,21.16
2023-02-24T17:31:50.371Z,21.16
2023-02-24T17:33:51.999Z,21.14
2023-02-24T17:35:53.356Z,21.13
2023-02-24T17:37:54.678Z,21.12
2023-02-24T17:39:55.975Z,21.11
2023-02-24T17:41:57.273Z,21.12
2023-02-24T17:44:01.618Z,21.10
2023-02-24T17:46:05.838Z,21.11
2023-02-24T17:48:08.354Z,21.11
2023-02-24T17:50:09.652Z,21.12
2023-02-24T17:52:11.180Z,21.11
2023-02-24T17:54:12.468Z,21.11
2023-02-24T17:56:13.786Z,21.09
2023-02-24T17:58:15.101Z,21.11
2023-02-24T18:00:16.396Z,21.13
2023-02-24T18:02:17.839Z,21.15
2023-02-24T18:04:22.067Z,21.18
2023-02-24T18:06:23.659Z,21.21
2023-02-24T18:08:25.085Z,21.26
2023-02-24T18:10:27.326Z,21.29
2023-02-24T18:12:28.638Z,21.32
2023-02-24T18:14:29.963Z,21.34
2023-02-24T18:16:31.465Z,21.34
2023-02-24T18:18:32.836Z,21.36
2023-02-24T18:20:34.360Z,21.36
2023-02-24T18:22:35.703Z,21.36
2023-02-24T18:24:37.007Z,21.34
2023-02-24T18:26:39.609Z,21.32
2023-02-24T18:28:41.025Z,21.49
2023-02-24T18:30:42.429Z,22.50
2023-02-24T18:32:44.860Z,22.83
2023-02-24T18:34:46.335Z,22.80
2023-02-24T18:36:47.747Z,22.85
2023-02-24T18:38:49.073Z,23.10
2023-02-24T18:40:53.147Z,23.18
2023-02-24T18:43:00.583Z,22.45
2023-02-24T18:45:02.162Z,22.00
2023-02-24T18:47:09.294Z,22.33
2023-02-24T18:49:11.803Z,22.72
2023-02-24T18:51:13.179Z,22.72
2023-02-24T18:53:20.709Z,22.65
2023-02-24T18:55:22.217Z,22.87
2023-02-24T18:57:23.528Z,23.57
2023-02-24T18:59:25.620Z,23.45
2023-02-24T19:01:27.009Z,23.65
2023-02-24T19:03:28.360Z,23.66
2023-02-24T19:05:37.965Z,23.53
2023-02-24T19:07:39.630Z,23.39
2023-02-24T19:09:42.651Z,23.02
2023-02-24T19:11:44.166Z,22.94
2023-02-24T19:13:47.573Z,22.96
2023-02-24T19:15:48.895Z,22.94
2023-02-24T19:17:50.273Z,22.96
2023-02-24T19:19:51.689Z,22.90
2023-02-24T19:21:52.995Z,22.48
2023-02-24T19:23:54.325Z,22.27
2023-02-24T19:25:55.641Z,22.42
2023-02-24T19:28:02.873Z,22.66
2023-02-24T19:30:04.209Z,22.61
2023-02-24T19:32:05.784Z,22.36
2023-02-24T19:34:07.435Z,22.15
2023-02-24T19:36:10.004Z,22.04
2023-02-24T19:38:11.299Z,21.98
2023-02-24T19:40:12.800Z,21.91
2023-02-24T19:42:14.600Z,21.81
2023-02-24T19:44:15.891Z,21.68
2023-02-24T19:46:17.322Z,22.05
2023-02-24T19:48:18.680Z,22.36
2023-02-24T19:50:20.008Z,22.51
2023-02-24T19:52:21.348Z,22.66
2023-02-24T19:54:22.847Z,22.77
2023-02-24T19:56:24.491Z,22.82
2023-02-24T19:58:26.030Z,23.47
2023-02-24T20:00:27.331Z,23.66
2023-02-24T20:02:29.425Z,23.46
2023-02-24T20:04:30.799Z,22.73
2023-02-24T20:06:32.200Z,22.33
2023-02-24T20:08:33.545Z,23.23
2023-02-24T20:10:34.901Z,22.86
2023-02-24T20:12:39.000Z,23.49
2023-02-24T20:14:46.116Z,23.07
2023-02-24T20:16:47.541Z,23.26
2023-02-24T20:18:48.939Z,23.53
2023-02-24T20:20:50.427Z,23.52
2023-02-24T20:22:51.847Z,23.32
2023-02-24T20:24:53.152Z,23.60
2023-02-24T20:27:00.284Z,23.36
2023-02-24T20:29:02.249Z,23.30
2023-02-24T20:31:03.601Z,23.24
2023-02-24T20:33:05.051Z,23.05
2023-02-24T20:35:06.476Z,22.42
2023-02-24T20:37:07.819Z,23.32
2023-02-24T20:39:12.285Z,23.14
2023-02-24T20:41:16.408Z,22.96
2023-02-24T20:43:20.635Z,23.14
2023-02-24T20:45:22.010Z,22.99
2023-02-24T20:47:23.437Z,22.99
2023-02-24T20:49:24.830Z,23.01
2023-02-24T20:51:26.584Z,22.72
2023-02-24T20:53:31.055Z,22.35
2023-02-24T20:55:32.339Z,22.41
2023-02-24T20:57:33.932Z,22.82
2023-02-24T20:59:40.680Z,22.84
2023-02-24T21:01:42.060Z,23.25
2023-02-24T21:03:46.309Z,23.14
2023-02-24T21:05:58.872Z,23.04
2023-02-24T21:08:10.327Z,23.01
2023-02-24T21:10:11.664Z,22.95
2023-02-24T21:12:12.976Z,22.90
2023-02-24T21:14:14.268Z,22.89
2023-02-24T21:16:15.739Z,22.92
2023-02-24T21:18:17.072Z,22.93
2023-02-24T21:20:18.365Z,22.63
2023-02-24T21:22:22.324Z,22.54
2023-02-24T21:24:26.765Z,22.81
2023-02-24T21:26:29.181Z,22.81
2023-02-24T21:28:30.541Z,22.89
2023-02-24T21:30:31.888Z,22.90
2023-02-24T21:32:33.376Z,23.04
2023-02-24T21:34:34.731Z,23.27
2023-02-24T21:36:36.052Z,23.18
2023-02-24T21:38:37.348Z,23.08
2023-02-24T21:40:38.704Z,23.09
2023-02-24T21:42:43.074Z,23.14
2023-02-24T21:44:44.771Z,23.10
2023-02-24T21:46:46.796Z,23.11
2023-02-24T21:48:51.120Z,23.10
2023-02-24T21:50:52.688Z,23.05
2023-02-24T21:52:55.897Z,23.08
2023-02-24T21:54:57.976Z,23.07
2023-02-24T21:56:59.411Z,23.07
2023-02-24T21:59:00.805Z,23.06
2023-02-24T22:01:02.141Z,23.01
2023-02-24T22:03:03.467Z,22.79
2023-02-24T22:05:04.830Z,22.40
2023-02-24T22:07:06.111Z,22.11
2023-02-24T22:09:07.451Z,21.96
2023-02-24T22:11:08.743Z,21.98
2023-02-24T22:13:10.034Z,22.48
2023-02-24T22:15:11.364Z,22.84
2023-02-24T22:17:12.723Z,22.94
2023-02-24T22:19:14.022Z,20.75
2023-02-24T22:21:17.232Z,19.42
2023-02-24T22:23:18.556Z,19.09
2023-02-24T22:25:19.863Z,18.68
2023-02-24T22:27:21.167Z,18.85
2023-02-24T22:29:22.616Z,20.57
2023-02-24T22:31:24.000Z,21.67
2023-02-24T22:33:25.364Z,22.28
2023-02-24T22:35:26.669Z,22.63
2023-02-24T22:37:28.017Z,22.91
2023-02-24T22:39:29.398Z,23.11
2023-02-24T22:41:31.323Z,23.29
2023-02-24T22:43:35.928Z,23.39
2023-02-24T22:45:40.240Z,23.49
2023-02-24T22:47:41.596Z,23.52
2023-02-24T22:49:42.966Z,23.52
2023-02-24T22:51:45.689Z,23.52
2023-02-24T22:53:46.994Z,23.07
2023-02-24T22:55:48.314Z,23.17
2023-02-24T22:57:49.609Z,23.47
2023-02-24T22:59:50.942Z,23.56
2023-02-24T23:01:52.294Z,23.52
2023-02-24T23:03:53.676Z,23.54
2023-02-24T23:05:55.390Z,23.56
2023-02-24T23:07:56.704Z,23.72
2023-02-24T23:09:59.287Z,23.56
2023-02-24T23:12:00.624Z,24.07
2023-02-24T23:14:01.947Z,23.80
2023-02-24T23:16:03.594Z,23.53
2023-02-24T23:18:05.036Z,23.41
2023-02-24T23:20:12.766Z,23.40
2023-02-24T23:22:14.843Z,23.32
2023-02-24T23:24:16.162Z,23.24
2023-02-24T23:26:18.098Z,23.20
2023-02-24T23:28:19.510Z,23.42
2023-02-24T23:30:20.889Z,23.22
2023-02-24T23:32:22.285Z,22.32
2023-02-24T23:34:23.933Z,19.93
2023-02-24T23:36:25.582Z,19.07
2023-02-24T23:38:30.206Z,20.12
2023-02-24T23:40:48.101Z,20.94
2023-02-24T23:42:50.716Z,21.37
2023-02-24T23:44:52.037Z,20.64
2023-02-24T23:46:53.383Z,21.57
2023-02-24T23:48:54.681Z,21.61
2023-02-24T23:50:57.348Z,21.63
2023-02-24T23:52:58.652Z,21.66
2023-02-24T23:55:00.289Z,21.67
2023-02-24T23:57:02.190Z,21.69
2023-02-24T23:59:03.538Z,21.69
